createdAt,value
2022-08-09T04:00:32.004Z,101300.96
2022-08-09T04:03:00.489Z,101299.48
2022-08-09T04:05:29.045Z,101298.39
2022-08-09T04:08:00.068Z,101302.17
2022-08-09T04:10:29.368Z,101303.73
2022-08-09T04:13:00.825Z,101305.89
2022-08-09T04:15:40.591Z,101304.60
2022-08-09T04:18:16.676Z,101306.34
2022-08-09T04:20:47.443Z,101310.05
2022-08-09T04:23:16.826Z,101307.98
2022-08-09T04:25:51.877Z,101312.90
2022-08-09T04:28:34.027Z,101316.11
2022-08-09T04:31:09.320Z,101320.19
2022-08-09T04:33:47.622Z,101319.52
2022-08-09T04:36:24.212Z,101323.27
2022-08-09T04:38:52.838Z,101323.61
2022-08-09T04:41:23.616Z,101324.30
2022-08-09T04:44:05.905Z,101325.83
2022-08-09T04:46:58.733Z,101331.95
2022-08-09T04:49:53.240Z,101335.17
2022-08-09T04:52:29.009Z,101332.88
2022-08-09T04:55:01.421Z,101333.51
2022-08-09T04:57:59.378Z,101334.23
2022-08-09T05:00:19.299Z,101337.44
2022-08-09T05:02:51.950Z,101338.02
2022-08-09T05:05:32.052Z,101340.27
2022-08-09T05:08:11.925Z,101344.02
2022-08-09T05:10:43.719Z,101344.58
2022-08-09T05:13:13.013Z,101347.08
2022-08-09T05:15:47.963Z,101346.81
2022-08-09T05:18:39.623Z,101346.85
2022-08-09T05:21:13.425Z,101350.61
2022-08-09T05:24:01.431Z,101346.02
2022-08-09T05:26:37.593Z,101349.73
2022-08-09T05:29:21.945Z,101353.85
2022-08-09T05:31:57.521Z,101351.02
2022-08-09T05:34:32.378Z,101347.61
2022-08-09T05:37:05.335Z,101350.28
2022-08-09T05:39:42.478Z,101353.68
2022-08-09T05:42:17.361Z,101351.61
2022-08-09T05:44:51.292Z,101348.20
2022-08-09T05:47:21.729Z,101351.43
2022-08-09T05:50:23.548Z,101350.78
2022-08-09T05:52:44.389Z,101353.84
2022-08-09T05:55:21.699Z,101353.08
2022-08-09T05:57:56.750Z,101354.29
2022-08-09T06:00:32.763Z,101355.05
2022-08-09T06:03:03.857Z,101350.70
2022-08-09T06:05:57.369Z,101352.93
2022-08-09T06:08:26.523Z,101358.17
2022-08-09T06:10:55.042Z,101363.58
2022-08-09T06:13:23.537Z,101361.46
2022-08-09T06:15:52.797Z,101365.17
2022-08-09T06:18:24.985Z,101366.27
2022-08-09T06:20:58.227Z,101370.84
2022-08-09T06:23:55.244Z,101366.16
2022-08-09T06:26:20.875Z,101374.76
2022-08-09T06:29:01.063Z,101374.89
2022-08-09T06:31:39.709Z,101376.45
2022-08-09T06:34:23.454Z,101379.06
2022-08-09T06:36:57.377Z,101380.86
2022-08-09T06:39:48.852Z,101384.72
2022-08-09T06:42:24.924Z,101386.50
2022-08-09T06:44:57.952Z,101392.27
2022-08-09T06:47:25.245Z,101392.71
2022-08-09T06:50:14.195Z,101390.43
2022-08-09T06:52:49.045Z,101399.45
2022-08-09T06:55:23.354Z,101397.54
2022-08-09T06:58:02.813Z,101400.23
2022-08-09T07:00:53.930Z,101398.62
2022-08-09T07:03:28.060Z,101400.45
2022-08-09T07:06:04.433Z,101399.58
2022-08-09T07:08:35.207Z,101398.68
2022-08-09T07:11:04.141Z,101402.45
2022-08-09T07:13:45.025Z,101401.52
2022-08-09T07:16:42.656Z,101404.79
2022-08-09T07:19:23.094Z,101406.88
2022-08-09T07:21:57.501Z,101410.73
2022-08-09T07:24:40.560Z,101415.59
2022-08-09T07:27:27.163Z,101414.02
2022-08-09T07:30:02.740Z,101414.53
2022-08-09T07:32:32.112Z,101417.39
2022-08-09T07:35:10.145Z,101421.77
2022-08-09T07:37:44.541Z,101420.77
2022-08-09T07:40:17.398Z,101423.73
2022-08-09T07:42:58.356Z,101426.53
2022-08-09T07:45:37.860Z,101426.22
2022-08-09T07:48:29.497Z,101426.98
2022-08-09T08:21:16.793Z,101425.32
2022-08-09T08:23:55.730Z,101427.73
2022-08-09T08:26:26.428Z,101432.92
2022-08-09T08:29:11.462Z,101435.67
2022-08-09T08:32:02.669Z,101439.59
2022-08-09T08:34:36.349Z,101438.46
2022-08-09T08:37:11.440Z,101437.61
2022-08-09T08:39:45.206Z,101440.73
2022-08-09T08:42:15.779Z,101441.48
2022-08-09T08:44:47.523Z,101443.19
2022-08-09T08:47:16.435Z,101444.45
2022-08-09T08:49:47.756Z,101444.88
2022-08-09T08:55:13.736Z,101446.77
2022-08-09T08:57:56.360Z,101448.20
2022-08-09T09:00:34.715Z,101451.29
2022-08-09T09:03:11.486Z,101453.27
2022-08-09T09:05:59.140Z,101452.02
2022-08-09T09:08:40.454Z,101451.20
2022-08-09T09:11:17.899Z,101452.98
2022-08-09T09:13:57.406Z,101453.99
2022-08-09T09:16:34.166Z,101456.52
2022-08-09T09:19:37.443Z,101454.23
2022-08-09T09:22:11.651Z,101454.78
2022-08-09T09:24:50.920Z,101454.02
2022-08-09T09:28:05.804Z,101454.36
2022-08-09T09:30:38.273Z,101455.73
2022-08-09T09:33:17.040Z,101454.21
2022-08-09T09:36:01.362Z,101452.88
2022-08-09T09:38:52.904Z,101452.57
2022-08-09T09:41:28.024Z,101453.78
2022-08-09T09:44:11.129Z,101455.40
2022-08-09T09:46:50.550Z,101455.31
2022-08-09T09:49:50.074Z,101458.04
2022-08-09T09:52:33.423Z,101459.76
2022-08-09T09:55:16.426Z,101452.54
2022-08-09T09:58:18.707Z,101447.54
2022-08-09T10:00:59.680Z,101450.23
2022-08-09T10:03:56.424Z,101447.38
2022-08-09T10:06:42.926Z,101448.27
2022-08-09T10:09:22.905Z,101445.95
2022-08-09T10:12:14.436Z,101441.59
2022-08-09T10:14:52.457Z,101439.45
2022-08-09T10:17:40.124Z,101437.99
2022-08-09T10:20:27.483Z,101432.27
2022-08-09T10:23:17.029Z,101429.73
2022-08-09T10:26:08.021Z,101430.34
2022-08-09T10:28:41.408Z,101432.48
2022-08-09T10:34:10.656Z,101428.53
2022-08-09T10:36:57.719Z,101427.08
2022-08-09T10:39:28.723Z,101424.45
2022-08-09T10:41:57.673Z,101424.02
2022-08-09T10:44:31.725Z,101421.09
2022-08-09T10:47:00.915Z,101418.79
2022-08-09T10:49:58.746Z,101418.16
2022-08-09T10:52:42.922Z,101408.31
2022-08-09T10:55:55.176Z,101404.27
2022-08-09T10:58:33.860Z,101404.70
2022-08-09T11:03:02.611Z,101398.52
2022-08-09T11:04:28.023Z,101394.95
2022-08-09T11:07:01.354Z,101401.91
2022-08-09T11:09:41.275Z,101398.00
2022-08-09T11:12:20.309Z,101396.65
2022-08-09T11:14:58.138Z,101398.80
2022-08-09T11:17:47.308Z,101398.73
2022-08-09T11:20:49.821Z,101400.77
2022-08-09T11:23:23.946Z,101400.58
2022-08-09T11:26:00.368Z,101402.48
2022-08-09T11:28:54.330Z,101400.55
2022-08-09T11:31:43.594Z,101397.59
2022-08-09T11:34:23.002Z,101392.63
2022-08-09T11:36:53.481Z,101393.96
2022-08-09T11:39:23.580Z,101389.54
2022-08-09T11:41:58.529Z,101392.19
2022-08-09T11:44:46.054Z,101398.94
2022-08-09T11:47:17.037Z,101394.08
2022-08-09T11:50:52.496Z,101391.66
2022-08-09T11:53:21.383Z,101392.23
2022-08-09T11:56:02.455Z,101388.77
2022-08-09T11:58:47.983Z,101387.66
2022-08-09T12:02:01.345Z,101382.08
2022-08-09T12:04:32.355Z,101378.89
2022-08-09T12:07:07.698Z,101375.91
2022-08-09T12:09:37.678Z,101375.52
2022-08-09T12:12:12.290Z,101371.65
2022-08-09T12:15:04.103Z,101369.09
2022-08-09T12:17:42.177Z,101362.63
2022-08-09T12:20:27.395Z,101362.91
2022-08-09T12:23:04.655Z,101362.96
2022-08-09T12:25:37.886Z,101362.88
2022-08-09T12:29:10.738Z,101355.73
2022-08-09T12:31:11.161Z,101350.52
2022-08-09T12:34:00.776Z,101347.28
2022-08-09T12:36:31.744Z,101356.79
2022-08-09T12:39:03.606Z,101358.38
2022-08-09T12:41:39.706Z,101352.41
2022-08-09T12:44:12.908Z,101350.52
2022-08-09T12:46:48.891Z,101352.33
2022-08-09T12:49:21.769Z,101348.95
2022-08-09T12:52:02.541Z,101345.58
2022-08-09T12:55:03.196Z,101339.38
2022-08-09T12:57:50.306Z,101338.13
2022-08-09T13:00:25.426Z,101334.68
2022-08-09T13:03:00.559Z,101336.52
2022-08-09T13:05:52.350Z,101334.16
2022-08-09T13:08:40.171Z,101333.10
2022-08-09T13:11:13.120Z,101330.00
2022-08-09T13:14:42.804Z,101327.52
2022-08-09T13:16:46.841Z,101326.11
2022-08-09T13:20:07.225Z,101326.86
2022-08-09T13:22:35.668Z,101321.42
2022-08-09T13:25:13.689Z,101320.38
2022-08-09T13:27:55.289Z,101321.36
2022-08-09T13:30:51.316Z,101320.48
2022-08-09T13:33:52.451Z,101319.48
2022-08-09T13:36:41.768Z,101315.98
2022-08-09T13:41:46.858Z,101309.20
2022-08-09T13:42:02.968Z,101310.43
2022-08-09T13:44:34.840Z,101311.48
2022-08-09T13:47:27.737Z,101308.02
2022-08-09T13:50:18.091Z,101312.26
2022-08-09T13:53:00.852Z,101309.83
2022-08-09T13:55:33.092Z,101311.99
2022-08-09T13:58:08.003Z,101313.48
2022-08-09T14:00:50.473Z,101309.66
2022-08-09T14:04:04.860Z,101307.95
2022-08-09T14:06:25.674Z,101309.54
2022-08-09T14:08:55.234Z,101308.17
2022-08-09T14:11:24.145Z,101309.08
2022-08-09T14:14:22.045Z,101306.38
2022-08-09T14:16:45.924Z,101304.05
2022-08-09T14:19:14.986Z,101305.27
2022-08-09T14:21:50.395Z,101311.87
2022-08-09T14:24:22.166Z,101312.40
2022-08-09T14:27:02.240Z,101312.83
2022-08-09T14:30:37.434Z,101309.48
2022-08-09T14:32:30.881Z,101304.57
2022-08-09T14:35:00.979Z,101304.02
2022-08-09T14:37:41.162Z,101301.11
2022-08-09T14:40:18.710Z,101294.02
2022-08-09T14:43:07.462Z,101296.23
2022-08-09T14:46:55.588Z,101294.22
2022-08-09T14:48:26.975Z,101294.12
2022-08-09T14:50:55.240Z,101293.52
2022-08-09T14:53:24.145Z,101292.34
2022-08-09T14:55:52.542Z,101294.73
2022-08-09T14:58:23.954Z,101300.04
2022-08-09T15:00:57.759Z,101299.44
2022-08-09T15:03:27.713Z,101306.20
2022-08-09T15:06:01.715Z,101309.25
2022-08-09T15:08:32.357Z,101309.42
2022-08-09T15:11:05.156Z,101308.07
2022-08-09T15:13:56.480Z,101310.70
2022-08-09T15:16:30.397Z,101312.63
2022-08-09T15:19:02.446Z,101310.50
2022-08-09T15:21:56.276Z,101312.16
2022-08-09T15:24:30.725Z,101319.98
2022-08-09T15:27:00.100Z,101313.68
2022-08-09T15:30:59.193Z,101313.98
2022-08-09T15:32:29.405Z,101316.56
2022-08-09T15:35:01.065Z,101316.99
2022-08-09T15:37:38.055Z,101318.04
2022-08-09T15:40:31.912Z,101316.66
2022-08-09T15:43:01.780Z,101321.09
2022-08-09T15:45:31.059Z,101321.48
2022-08-09T15:48:28.959Z,101319.60
2022-08-09T15:51:29.973Z,101322.95
2022-08-09T15:54:03.905Z,101319.13
2022-08-09T15:56:36.376Z,101320.57
2022-08-09T15:59:05.366Z,101320.48
2022-08-09T16:01:35.999Z,101321.82
2022-08-09T16:04:05.110Z,101322.21
2022-08-09T16:06:37.602Z,101323.86
2022-08-09T16:09:06.622Z,101328.57
2022-08-09T16:11:35.441Z,101324.80
2022-08-09T16:14:08.272Z,101325.06
2022-08-09T16:16:42.060Z,101324.65
2022-08-09T16:19:18.147Z,101326.27
2022-08-09T16:21:51.913Z,101325.27
2022-08-09T16:24:32.831Z,101327.94
2022-08-09T16:27:05.077Z,101328.61
2022-08-09T16:29:50.693Z,101327.80
2022-08-09T16:32:34.094Z,101328.55
2022-08-09T16:35:07.199Z,101329.76
2022-08-09T16:37:55.413Z,101327.48
2022-08-09T16:40:29.972Z,101323.13
2022-08-09T16:43:12.289Z,101324.82
2022-08-09T16:45:45.317Z,101325.00
2022-08-09T16:48:40.747Z,101325.57
2022-08-09T16:51:14.094Z,101324.77
2022-08-09T16:54:08.926Z,101325.79
2022-08-09T16:56:36.437Z,101326.09
2022-08-09T16:59:10.560Z,101321.52
2022-08-09T17:01:42.047Z,101319.87
2022-08-09T17:04:25.923Z,101324.83
2022-08-09T17:08:41.425Z,101319.63
2022-08-09T17:09:50.918Z,101319.54
2022-08-09T17:12:20.297Z,101317.38
2022-08-09T17:14:54.981Z,101319.16
2022-08-09T17:17:27.875Z,101315.64
2022-08-09T17:20:32.695Z,101318.06
2022-08-09T17:22:52.433Z,101318.82
2022-08-09T17:25:23.529Z,101317.27
2022-08-09T17:27:55.144Z,101319.59
2022-08-09T17:30:32.102Z,101319.91
2022-08-09T17:33:05.730Z,101319.24
2022-08-09T17:35:52.209Z,101320.63
2022-08-09T17:38:32.207Z,101317.02
2022-08-09T17:41:06.608Z,101315.75
2022-08-09T17:43:37.509Z,101316.95
2022-08-09T17:46:09.872Z,101319.11
2022-08-09T17:48:51.673Z,101319.23
2022-08-09T17:51:22.707Z,101324.56
2022-08-09T17:53:54.949Z,101326.58
2022-08-09T17:56:29.174Z,101329.80
2022-08-09T17:59:11.758Z,101335.23
2022-08-09T18:02:07.645Z,101335.38
2022-08-09T18:04:34.891Z,101334.33
2022-08-09T18:07:07.613Z,101336.01
2022-08-09T18:09:41.445Z,101336.16
2022-08-09T18:12:20.378Z,101337.92
2022-08-09T18:14:54.743Z,101344.58
2022-08-09T18:18:03.040Z,101345.27
2022-08-09T18:20:56.144Z,101348.29
2022-08-09T18:23:08.141Z,101349.79
2022-08-09T18:25:58.100Z,101349.50
2022-08-09T18:30:34.829Z,101351.10
2022-08-09T18:31:24.878Z,101352.17
2022-08-09T18:34:02.193Z,101357.71
2022-08-09T18:36:32.370Z,101361.52
2022-08-09T18:39:06.852Z,101360.31
2022-08-09T18:41:42.126Z,101367.08
2022-08-09T18:44:25.740Z,101371.52
2022-08-09T18:47:07.725Z,101381.63
2022-08-09T18:49:46.228Z,101378.59
2022-08-09T18:52:24.987Z,101376.86
2022-08-09T18:55:05.911Z,101376.35
2022-08-09T18:57:45.326Z,101377.98
2022-08-09T19:00:16.675Z,101380.96
2022-08-09T19:02:54.102Z,101385.61
2022-08-09T19:05:28.636Z,101386.61
2022-08-09T19:08:19.583Z,101390.52
2022-08-09T19:10:49.171Z,101386.48
2022-08-09T19:13:22.255Z,101387.73
2022-08-09T19:15:55.704Z,101383.41
2022-08-09T19:18:37.397Z,101381.27
2022-08-09T19:21:08.953Z,101382.15
2022-08-09T19:24:36.305Z,101386.95
2022-08-09T19:26:35.203Z,101384.80
2022-08-09T19:29:15.128Z,101389.86
2022-08-09T19:31:51.218Z,101388.61
2022-08-09T19:34:22.528Z,101394.11
2022-08-09T19:36:56.632Z,101395.88
2022-08-09T19:39:43.773Z,101391.15
2022-08-09T19:42:19.163Z,101394.73
2022-08-09T19:44:51.104Z,101395.96
2022-08-09T19:47:23.025Z,101395.33
2022-08-09T19:50:09.646Z,101400.98
2022-08-09T19:52:49.425Z,101404.58
2022-08-09T19:55:30.520Z,101405.39
2022-08-09T19:58:16.358Z,101403.56
2022-08-09T20:00:47.450Z,101406.49
2022-08-09T20:04:16.923Z,101402.53
2022-08-09T20:06:10.543Z,101408.00
2022-08-09T20:08:56.729Z,101406.67
2022-08-09T20:11:43.018Z,101407.23
2022-08-09T20:14:15.756Z,101407.17
2022-08-09T20:16:53.271Z,101404.58
2022-08-09T20:19:49.001Z,101407.04
2022-08-09T20:22:14.691Z,101408.72
2022-08-09T20:24:53.486Z,101401.98
2022-08-09T20:27:24.079Z,101400.85
2022-08-09T20:29:52.785Z,101401.96
2022-08-09T20:32:33.602Z,101402.62
2022-08-09T20:35:11.272Z,101401.48
2022-08-09T20:38:24.026Z,101397.06
2022-08-09T20:40:30.720Z,101395.98
2022-08-09T20:43:18.404Z,101396.54
2022-08-09T20:46:00.753Z,101402.10
2022-08-09T20:48:43.400Z,101400.06
2022-08-09T20:51:19.140Z,101404.49
2022-08-09T20:53:49.804Z,101406.04
2022-08-09T20:56:22.002Z,101407.64
2022-08-09T20:58:58.765Z,101406.88
2022-08-09T21:01:34.175Z,101409.02
2022-08-09T21:05:53.626Z,101413.25
2022-08-09T21:07:11.313Z,101411.34
2022-08-09T21:09:55.815Z,101411.02
2022-08-09T21:15:23.865Z,101417.20
2022-08-09T21:18:11.550Z,101417.90
2022-08-09T21:20:54.438Z,101419.17
2022-08-09T21:23:47.250Z,101424.55
2022-08-09T21:26:18.061Z,101425.67
2022-08-09T21:28:55.489Z,101427.92
2022-08-09T21:31:49.284Z,101424.86
2022-08-09T21:34:21.140Z,101427.42
2022-08-09T21:36:59.095Z,101423.39
2022-08-09T21:39:42.092Z,101420.64
2022-08-09T21:42:12.280Z,101428.09
2022-08-09T21:44:42.886Z,101425.59
2022-08-09T21:47:18.048Z,101426.52
2022-08-09T21:49:50.888Z,101431.84
2022-08-09T21:52:21.700Z,101431.34
2022-08-09T21:55:03.255Z,101435.67
2022-08-09T21:57:39.048Z,101430.87
2022-08-09T22:00:25.678Z,101435.46
2022-08-09T22:03:01.150Z,101426.38
2022-08-09T22:05:35.919Z,101427.56
2022-08-09T22:08:13.566Z,101429.94
2022-08-09T22:11:50.358Z,101426.99
2022-08-09T22:13:36.937Z,101426.27
2022-08-09T22:16:08.717Z,101430.42
2022-08-09T22:18:54.283Z,101427.50
2022-08-09T22:21:49.795Z,101428.62
2022-08-09T22:24:24.139Z,101427.54
2022-08-09T22:26:55.322Z,101429.89
2022-08-09T22:29:32.231Z,101431.54
2022-08-09T22:32:29.675Z,101426.61
2022-08-09T22:35:06.415Z,101427.25
2022-08-09T22:37:49.699Z,101420.88
2022-08-09T22:40:36.546Z,101421.64
2022-08-09T22:43:08.505Z,101417.16
2022-08-09T22:48:13.313Z,101416.06
2022-08-09T22:48:36.755Z,101414.68
2022-08-09T22:51:10.963Z,101418.07
2022-08-09T22:53:58.451Z,101423.10
2022-08-09T22:56:34.311Z,101426.13
2022-08-09T22:59:55.324Z,101424.98
